Pagrindinis puslapis
METAR-TAF:

METAR-TAF

Oro uostai :

Sharjah, Jungtiniai Arabų Emyratai

platuma: 25-20N, ilguma: 055-31E, Aukštis: 35 m

Dabartinis oras

Ataskaita buvo paskelbta 1 valandą ir 9 minutes, ne 12:00 UTC
Vėjas 17 kt iš Vakarų
Temperatūra 39°C
Drėgmė 31%
Slėgis 1004 hPa
Matomumas: 7000 m

METAR: OMSJ 011200Z 27017KT 7000 NSC 39/19 Q1004 NOSIG

Laikas: 17:09 (13:09 UTC)

Prognozė

Ataskaita buvo paskelbta 2 valandos ir 7 minutes, ne 11:02 UTC
Prognozė galioja nuo 01 metu 12 UTC su 02 metu 18 UTC
Vėjas 15 kt iš Vakarų/Šiaurės Vakarų
Matomumas: 8000 m
Tapsmas
nuo 01 metu 15 UTC su 01 metu 17 UTC
Vėjas 5 kt iš Pietų
Tapsmas
nuo 02 metu 05 UTC su 02 metu 07 UTC
Vėjas 15 kt iš Vakarų

TAF: OMSJ 011102Z 0112/0218 29015KT 8000 NSC BECMG 0115/0117 17005KT BECMG 0205/0207 28015KT

Orai ataskaitas ir orų prognozės (METAR, TAF).

turimą stotys yra geltonos ir raudonos taškus žemėlapyje.

Perkelti pele per norėdami pamatyti stoties vardą.

Tada spustelėkite, norėdami matyti oro stebėjimo ir prognozės.

Norėdami pakeisti žemėlapį: spustelėkite ant žalios mygtukų su juodo kryžiaus žemyn,; žalią mygtuką su brūkšneliu, jei norite nutolinti; arba žalių rodyklių gretimoms žemėlapius.


METAR-TAF: